Time;durP1;ratioP1;P1;durP2;ratioP2;P2;SDS_P1;SDS_P2;PMS_P1;PMS_P2;Temp;Humidity;BMP_temperature;BMP_pressure;BME280_temperature;BME280_humidity;BME280_pressure;Samples;Min_cycle;Max_cycle;Signal;HPM_P1;HPM_P2
2024/01/19 00:01:42;;;;;;;1999.90;999.90;;;;;;;;;;5073545;28;20051;-81
2024/01/19 00:04:08;;;;;;;1999.90;999.90;;;;;;;;;;5071119;28;20084;-81
2024/01/19 00:06:38;;;;;;;1999.90;999.90;;;;;;;;;;5070317;28;20044;-85
2024/01/19 00:09:06;;;;;;;1999.90;999.90;;;;;;;;;;5079761;28;20694;-81
2024/01/19 00:11:33;;;;;;;1999.90;999.90;;;;;;;;;;5078791;28;20059;-83
2024/01/19 00:13:59;;;;;;;1999.90;999.90;;;;;;;;;;5072999;28;20044;-82
2024/01/19 00:16:26;;;;;;;1999.90;999.90;;;;;;;;;;5075229;28;20082;-82
2024/01/19 00:18:57;;;;;;;1999.90;999.90;;;;;;;;;;5077903;28;20126;-81
2024/01/19 00:21:24;;;;;;;1999.90;999.90;;;;;;;;;;5066392;28;20041;-81
2024/01/19 00:23:51;;;;;;;1999.90;999.90;;;;;;;;;;5078679;28;20385;-82
2024/01/19 00:26:18;;;;;;;1999.90;999.90;;;;;;;;;;5079235;28;20047;-82
2024/01/19 00:28:45;;;;;;;1999.90;999.90;;;;;;;;;;5078669;28;20044;-81
2024/01/19 00:31:12;;;;;;;1999.90;999.90;;;;;;;;;;5081569;28;20040;-81
2024/01/19 00:33:38;;;;;;;1999.90;999.90;;;;;;;;;;5056855;28;20045;-82
2024/01/19 00:36:05;;;;;;;1999.90;999.90;;;;;;;;;;5072686;28;20078;-81
2024/01/19 00:38:32;;;;;;;1999.90;999.90;;;;;;;;;;5070266;28;20054;-82
2024/01/19 00:40:58;;;;;;;1999.90;999.90;;;;;;;;;;5074170;28;20055;-82
2024/01/19 00:43:27;;;;;;;1999.90;999.90;;;;;;;;;;5077860;28;20544;-81
2024/01/19 00:45:54;;;;;;;1999.90;999.90;;;;;;;;;;5077862;28;20044;-83
2024/01/19 00:48:20;;;;;;;1999.90;999.90;;;;;;;;;;5070052;28;20413;-81
2024/01/19 00:51:03;;;;;;;1999.90;999.90;;;;;;;;;;5066586;28;20083;-82
2024/01/19 00:53:29;;;;;;;1999.90;999.90;;;;;;;;;;5064242;28;20044;-83
2024/01/19 00:55:56;;;;;;;1999.90;999.90;;;;;;;;;;5075281;28;20045;-83
2024/01/19 00:58:22;;;;;;;1999.90;999.90;;;;;;;;;;5078789;28;20049;-82
2024/01/19 01:00:50;;;;;;;1999.90;999.90;;;;;;;;;;5076175;28;20059;-82
2024/01/19 01:03:22;;;;;;;1999.90;999.90;;;;;;;;;;5071904;28;20048;-81
2024/01/19 01:05:48;;;;;;;1999.90;999.90;;;;;;;;;;5053572;28;20056;-82
2024/01/19 01:08:15;;;;;;;1999.90;999.90;;;;;;;;;;5061241;28;20048;-82
2024/01/19 01:10:42;;;;;;;1999.90;999.90;;;;;;;;;;5051343;28;20141;-82
2024/01/19 01:13:08;;;;;;;1999.90;999.90;;;;;;;;;;5060274;28;20041;-82
2024/01/19 01:15:35;;;;;;;1999.90;999.90;;;;;;;;;;5058253;28;20055;-84
2024/01/19 01:18:03;;;;;;;1999.90;999.90;;;;;;;;;;5054231;28;20056;-84
2024/01/19 01:20:29;;;;;;;1999.90;999.90;;;;;;;;;;5058240;28;20049;-82
2024/01/19 01:22:56;;;;;;;1999.90;999.90;;;;;;;;;;5056143;28;20064;-82
2024/01/19 01:25:22;;;;;;;1999.90;999.90;;;;;;;;;;5057820;28;20052;-82
2024/01/19 01:27:49;;;;;;;1999.90;999.90;;;;;;;;;;5053623;28;20055;-82
2024/01/19 01:30:16;;;;;;;1999.90;999.90;;;;;;;;;;5067176;28;20055;-83
2024/01/19 01:32:41;;;;;;;1999.90;999.90;;;;;;;;;;5071456;28;20041;-87
2024/01/19 01:35:09;;;;;;;1999.90;999.90;;;;;;;;;;5071280;28;20045;-82
2024/01/19 01:37:35;;;;;;;1999.90;999.90;;;;;;;;;;5056500;28;20036;-82
2024/01/19 01:40:03;;;;;;;1999.90;999.90;;;;;;;;;;5061889;28;20045;-83
2024/01/19 01:42:30;;;;;;;1999.90;999.90;;;;;;;;;;5055286;28;20049;-82
2024/01/19 01:44:56;;;;;;;1999.90;999.90;;;;;;;;;;5057284;28;20509;-81
2024/01/19 01:47:23;;;;;;;1999.90;999.90;;;;;;;;;;5061140;28;20059;-82
2024/01/19 01:50:06;;;;;;;1999.90;999.90;;;;;;;;;;5060225;28;20055;-81
2024/01/19 01:52:34;;;;;;;1999.90;999.90;;;;;;;;;;5043143;28;20048;-82
2024/01/19 01:55:00;;;;;;;1999.90;999.90;;;;;;;;;;5057409;28;20041;-82
2024/01/19 01:57:27;;;;;;;1999.90;999.90;;;;;;;;;;5060894;28;20040;-82
2024/01/19 01:59:54;;;;;;;1999.90;999.90;;;;;;;;;;5058061;28;20151;-82
2024/01/19 02:02:21;;;;;;;1999.90;999.90;;;;;;;;;;5059183;28;20053;-82
2024/01/19 02:04:48;;;;;;;1999.90;999.90;;;;;;;;;;5053407;28;20049;-81
2024/01/19 02:07:14;;;;;;;1999.90;999.90;;;;;;;;;;5052112;28;20497;-84
2024/01/19 02:09:42;;;;;;;1999.90;999.90;;;;;;;;;;5062151;28;20053;-81
2024/01/19 02:12:09;;;;;;;1999.90;999.90;;;;;;;;;;5041630;28;20045;-82
2024/01/19 02:14:35;;;;;;;1999.90;999.90;;;;;;;;;;5059586;28;20056;-84
2024/01/19 02:17:02;;;;;;;1999.90;999.90;;;;;;;;;;5049977;28;20119;-82
2024/01/19 02:19:35;;;;;;;1999.90;999.90;;;;;;;;;;5054147;28;20048;-82
2024/01/19 02:22:02;;;;;;;1999.90;999.90;;;;;;;;;;5054879;28;20080;-82
2024/01/19 02:24:30;;;;;;;1999.90;999.90;;;;;;;;;;5055101;28;20051;-82
2024/01/19 02:26:57;;;;;;;1999.90;999.90;;;;;;;;;;5058042;28;20055;-83
2024/01/19 02:29:23;;;;;;;1999.90;999.90;;;;;;;;;;5051783;28;20393;-82
2024/01/19 02:31:49;;;;;;;1999.90;999.90;;;;;;;;;;5058299;28;20037;-82
2024/01/19 02:34:16;;;;;;;1999.90;999.90;;;;;;;;;;5054181;28;20045;-82
2024/01/19 02:36:43;;;;;;;1999.90;999.90;;;;;;;;;;5055094;28;20053;-82
2024/01/19 02:39:10;;;;;;;1999.90;999.90;;;;;;;;;;5056987;28;20071;-83
2024/01/19 02:41:37;;;;;;;1999.90;999.90;;;;;;;;;;5052800;28;20053;-85
2024/01/19 02:44:04;;;;;;;1999.90;999.90;;;;;;;;;;5061687;28;20521;-82
2024/01/19 02:46:31;;;;;;;1999.90;999.90;;;;;;;;;;5057135;28;20517;-82
2024/01/19 02:49:03;;;;;;;1999.90;999.90;;;;;;;;;;5048426;28;20045;-83
2024/01/19 02:51:30;;;;;;;1999.90;999.90;;;;;;;;;;5045995;28;20068;-82
2024/01/19 02:53:56;;;;;;;1999.90;999.90;;;;;;;;;;5049327;28;20044;-82
2024/01/19 02:56:23;;;;;;;1999.90;999.90;;;;;;;;;;5051937;28;20049;-82
2024/01/19 02:58:51;;;;;;;1999.90;999.90;;;;;;;;;;5052637;28;20410;-85
2024/01/19 03:01:18;;;;;;;1999.90;999.90;;;;;;;;;;5053364;28;20045;-82
2024/01/19 03:03:44;;;;;;;1999.90;999.90;;;;;;;;;;5051714;28;20053;-82
2024/01/19 03:06:11;;;;;;;1999.90;999.90;;;;;;;;;;5073070;28;20074;-82
2024/01/19 03:08:37;;;;;;;1999.90;999.90;;;;;;;;;;5076008;28;20055;-82
2024/01/19 03:11:04;;;;;;;1999.90;999.90;;;;;;;;;;5081354;28;20048;-84
2024/01/19 03:13:31;;;;;;;1999.90;999.90;;;;;;;;;;5078916;28;20085;-83
2024/01/19 03:16:00;;;;;;;1999.90;999.90;;;;;;;;;;5080191;28;20115;-82
2024/01/19 03:18:26;;;;;;;1999.90;999.90;;;;;;;;;;5079569;28;20068;-81
2024/01/19 03:20:53;;;;;;;1999.90;999.90;;;;;;;;;;5077065;28;20061;-82
2024/01/19 03:23:19;;;;;;;1999.90;999.90;;;;;;;;;;5063416;28;20045;-82
2024/01/19 03:25:46;;;;;;;1999.90;999.90;;;;;;;;;;5077242;28;20055;-87
2024/01/19 03:28:12;;;;;;;1999.90;999.90;;;;;;;;;;5071555;28;20067;-82
2024/01/19 03:30:39;;;;;;;1999.90;999.90;;;;;;;;;;5073301;28;20044;-84
2024/01/19 03:33:07;;;;;;;1999.90;999.90;;;;;;;;;;5078454;28;20055;-85
2024/01/19 03:35:34;;;;;;;1999.90;999.90;;;;;;;;;;5076867;28;20036;-83
2024/01/19 03:38:00;;;;;;;1999.90;999.90;;;;;;;;;;5082003;28;20047;-83
2024/01/19 03:40:27;;;;;;;1999.90;999.90;;;;;;;;;;5073555;28;20066;-85
2024/01/19 03:42:53;;;;;;;1999.90;999.90;;;;;;;;;;5067088;28;20486;-84
2024/01/19 03:45:20;;;;;;;1999.90;999.90;;;;;;;;;;5080589;28;20213;-84
2024/01/19 03:47:47;;;;;;;1999.90;999.90;;;;;;;;;;5068350;28;20481;-82
2024/01/19 03:50:22;;;;;;;1999.90;999.90;;;;;;;;;;5071134;28;20048;-82
2024/01/19 03:52:48;;;;;;;1999.90;999.90;;;;;;;;;;5083783;28;20075;-84
2024/01/19 03:55:16;;;;;;;1999.90;999.90;;;;;;;;;;5081157;28;20052;-82
2024/01/19 03:57:43;;;;;;;1999.90;999.90;;;;;;;;;;5078630;28;20047;-83
2024/01/19 04:00:10;;;;;;;1999.90;999.90;;;;;;;;;;5077425;28;20051;-84
2024/01/19 04:02:37;;;;;;;1999.90;999.90;;;;;;;;;;5072518;28;20047;-84
2024/01/19 04:05:04;;;;;;;1999.90;999.90;;;;;;;;;;5074129;28;20048;-82
2024/01/19 04:07:32;;;;;;;1999.90;999.90;;;;;;;;;;5075594;28;20070;-83
2024/01/19 04:09:58;;;;;;;1999.90;999.90;;;;;;;;;;5077479;28;20044;-83
2024/01/19 04:12:25;;;;;;;1999.90;999.90;;;;;;;;;;5073782;28;20496;-84
2024/01/19 04:14:52;;;;;;;1999.90;999.90;;;;;;;;;;5075193;28;20040;-83
2024/01/19 04:17:18;;;;;;;1999.90;999.90;;;;;;;;;;5078585;28;20044;-83
2024/01/19 04:19:45;;;;;;;1999.90;999.90;;;;;;;;;;5079822;28;20411;-84
2024/01/19 04:22:11;;;;;;;1999.90;999.90;;;;;;;;;;5077574;28;20408;-83
2024/01/19 04:24:39;;;;;;;1999.90;999.90;;;;;;;;;;5067433;28;20044;-85
2024/01/19 04:27:06;;;;;;;1999.90;999.90;;;;;;;;;;5078155;28;20481;-82
2024/01/19 04:29:32;;;;;;;1999.90;999.90;;;;;;;;;;5070609;28;20053;-83
2024/01/19 04:31:59;;;;;;;1999.90;999.90;;;;;;;;;;5075942;28;20051;-87
2024/01/19 04:34:25;;;;;;;1999.90;999.90;;;;;;;;;;5082479;28;20403;-83
2024/01/19 04:36:52;;;;;;;1999.90;999.90;;;;;;;;;;5078193;28;20045;-83
2024/01/19 04:39:18;;;;;;;1999.90;999.90;;;;;;;;;;5079596;28;20040;-83
2024/01/19 04:41:46;;;;;;;1999.90;999.90;;;;;;;;;;5075084;28;20481;-85
2024/01/19 04:44:12;;;;;;;1999.90;999.90;;;;;;;;;;5073278;28;20055;-84
2024/01/19 04:46:39;;;;;;;1999.90;999.90;;;;;;;;;;5083116;28;20058;-83
2024/01/19 04:49:05;;;;;;;1999.90;999.90;;;;;;;;;;5073606;28;20049;-84
2024/01/19 04:51:32;;;;;;;1999.90;999.90;;;;;;;;;;5078726;28;20428;-84
2024/01/19 04:53:59;;;;;;;1999.90;999.90;;;;;;;;;;5079350;28;20045;-83
2024/01/19 04:56:25;;;;;;;1999.90;999.90;;;;;;;;;;5073075;28;20045;-83
2024/01/19 04:58:53;;;;;;;1999.90;999.90;;;;;;;;;;5083643;28;20037;-84
2024/01/19 05:01:20;;;;;;;1999.90;999.90;;;;;;;;;;5073728;28;20431;-83
2024/01/19 05:03:46;;;;;;;1999.90;999.90;;;;;;;;;;5076073;28;20044;-83
2024/01/19 05:06:13;;;;;;;1999.90;999.90;;;;;;;;;;5072856;28;20055;-86
2024/01/19 05:08:40;;;;;;;1999.90;999.90;;;;;;;;;;5076685;28;20060;-86
2024/01/19 05:11:06;;;;;;;1999.90;999.90;;;;;;;;;;5079294;28;20048;-84
2024/01/19 05:13:33;;;;;;;1999.90;999.90;;;;;;;;;;5071176;28;20055;-84
2024/01/19 05:16:01;;;;;;;1999.90;999.90;;;;;;;;;;5075815;28;20049;-84
2024/01/19 05:18:27;;;;;;;1999.90;999.90;;;;;;;;;;5072481;28;20580;-84
2024/01/19 05:21:07;;;;;;;1999.90;999.90;;;;;;;;;;5081150;28;20048;-83
2024/01/19 05:23:33;;;;;;;1999.90;999.90;;;;;;;;;;5077702;28;20113;-85
2024/01/19 05:26:00;;;;;;;1999.90;999.90;;;;;;;;;;5072044;28;20059;-82
2024/01/19 05:28:27;;;;;;;1999.90;999.90;;;;;;;;;;5078849;28;20044;-84
2024/01/19 05:30:54;;;;;;;1999.90;999.90;;;;;;;;;;5068600;28;20063;-83
2024/01/19 05:33:21;;;;;;;1999.90;999.90;;;;;;;;;;5076194;28;20043;-83
2024/01/19 05:35:48;;;;;;;1999.90;999.90;;;;;;;;;;5066819;28;20062;-84
2024/01/19 05:38:14;;;;;;;1999.90;999.90;;;;;;;;;;5086240;28;20089;-84
2024/01/19 05:40:41;;;;;;;1999.90;999.90;;;;;;;;;;5078872;28;20045;-83
2024/01/19 05:43:07;;;;;;;1999.90;999.90;;;;;;;;;;5073452;28;20055;-85
2024/01/19 05:45:34;;;;;;;1999.90;999.90;;;;;;;;;;5069925;28;20058;-85
2024/01/19 05:48:00;;;;;;;1999.90;999.90;;;;;;;;;;5078143;28;20059;-83
2024/01/19 05:50:46;;;;;;;1999.90;999.90;;;;;;;;;;5075164;28;20059;-83
2024/01/19 05:53:13;;;;;;;1999.90;999.90;;;;;;;;;;5076935;28;20048;-84
2024/01/19 05:55:40;;;;;;;1999.90;999.90;;;;;;;;;;5074941;28;20049;-87
2024/01/19 05:58:06;;;;;;;1999.90;999.90;;;;;;;;;;5081283;28;20051;-85
2024/01/19 06:00:33;;;;;;;1999.90;999.90;;;;;;;;;;5079101;28;20044;-85
2024/01/19 06:02:59;;;;;;;1999.90;999.90;;;;;;;;;;5086439;28;20043;-86
2024/01/19 06:05:26;;;;;;;1999.90;999.90;;;;;;;;;;5078067;28;20049;-82
2024/01/19 06:07:54;;;;;;;1999.90;999.90;;;;;;;;;;5071135;28;20045;-83
2024/01/19 06:10:20;;;;;;;1999.90;999.90;;;;;;;;;;5077719;28;20048;-83
2024/01/19 06:12:47;;;;;;;1999.90;999.90;;;;;;;;;;5075298;28;20120;-83
2024/01/19 06:15:13;;;;;;;1999.90;999.90;;;;;;;;;;5076821;28;20044;-83
2024/01/19 06:17:40;;;;;;;1999.90;999.90;;;;;;;;;;5064883;28;20048;-84
2024/01/19 06:20:07;;;;;;;1999.90;999.90;;;;;;;;;;5082972;28;20432;-85
2024/01/19 06:22:34;;;;;;;1999.90;999.90;;;;;;;;;;5076808;28;20053;-86
2024/01/19 06:25:02;;;;;;;1999.90;999.90;;;;;;;;;;5077109;28;20059;-84
2024/01/19 06:27:29;;;;;;;1999.90;999.90;;;;;;;;;;5074381;28;20048;-83
2024/01/19 06:29:56;;;;;;;1999.90;999.90;;;;;;;;;;5073711;28;20056;-83
2024/01/19 06:32:22;;;;;;;1999.90;999.90;;;;;;;;;;5080525;28;20420;-86
2024/01/19 06:34:48;;;;;;;1999.90;999.90;;;;;;;;;;5076373;28;20051;-83
2024/01/19 06:37:16;;;;;;;1999.90;999.90;;;;;;;;;;5088578;28;20511;-87
2024/01/19 06:39:45;;;;;;;1999.90;999.90;;;;;;;;;;5102295;28;20128;-89
2024/01/19 06:42:14;;;;;;;1999.90;999.90;;;;;;;;;;5106260;28;20059;-90
2024/01/19 06:44:42;;;;;;;1999.90;999.90;;;;;;;;;;5098231;28;20049;-90
2024/01/19 06:47:09;;;;;;;1999.90;999.90;;;;;;;;;;5080509;28;20041;-82
2024/01/19 06:49:42;;;;;;;1999.90;999.90;;;;;;;;;;5090521;28;20052;-84
2024/01/19 06:52:08;;;;;;;1999.90;999.90;;;;;;;;;;5084939;28;20075;-83
2024/01/19 06:54:35;;;;;;;1999.90;999.90;;;;;;;;;;5087792;28;20449;-86
2024/01/19 06:57:01;;;;;;;1999.90;999.90;;;;;;;;;;5082814;28;20055;-86
2024/01/19 06:59:29;;;;;;;1999.90;999.90;;;;;;;;;;5080680;28;20040;-84
2024/01/19 07:01:56;;;;;;;1999.90;999.90;;;;;;;;;;5082744;28;20135;-84
2024/01/19 07:04:22;;;;;;;1999.90;999.90;;;;;;;;;;5067711;28;20065;-84
2024/01/19 07:06:48;;;;;;;1999.90;999.90;;;;;;;;;;5055823;28;20045;-83
2024/01/19 07:09:17;;;;;;;1999.90;999.90;;;;;;;;;;5064817;28;20484;-84
2024/01/19 07:11:43;;;;;;;1999.90;999.90;;;;;;;;;;5056213;28;20392;-83
2024/01/19 07:14:10;;;;;;;1999.90;999.90;;;;;;;;;;5057605;28;20136;-84
2024/01/19 07:16:40;;;;;;;1999.90;999.90;;;;;;;;;;5059619;28;20136;-85
2024/01/19 07:19:07;;;;;;;1999.90;999.90;;;;;;;;;;5058587;28;20048;-85
2024/01/19 07:21:37;;;;;;;1999.90;999.90;;;;;;;;;;5038393;28;20053;-83
2024/01/19 07:24:04;;;;;;;1999.90;999.90;;;;;;;;;;5059215;28;20059;-83
2024/01/19 07:26:31;;;;;;;1999.90;999.90;;;;;;;;;;5056200;28;20049;-83
2024/01/19 07:28:58;;;;;;;1999.90;999.90;;;;;;;;;;5056583;28;20045;-84
2024/01/19 07:31:25;;;;;;;1999.90;999.90;;;;;;;;;;5051080;28;20128;-83
2024/01/19 07:33:53;;;;;;;1999.90;999.90;;;;;;;;;;5056180;28;20067;-84
2024/01/19 07:36:19;;;;;;;1999.90;999.90;;;;;;;;;;5061597;28;20049;-83
2024/01/19 07:38:46;;;;;;;1999.90;999.90;;;;;;;;;;5057051;28;20048;-83
2024/01/19 07:41:12;;;;;;;1999.90;999.90;;;;;;;;;;5063161;28;20049;-83
2024/01/19 07:43:39;;;;;;;1999.90;999.90;;;;;;;;;;5059735;28;20413;-85
2024/01/19 07:46:05;;;;;;;1999.90;999.90;;;;;;;;;;5062812;28;20049;-84
2024/01/19 07:48:32;;;;;;;1999.90;999.90;;;;;;;;;;5061636;28;20045;-84
2024/01/19 07:51:05;;;;;;;1999.90;999.90;;;;;;;;;;5054908;28;20504;-83
2024/01/19 07:53:32;;;;;;;1999.90;999.90;;;;;;;;;;5067296;28;20200;-83
2024/01/19 07:55:59;;;;;;;1999.90;999.90;;;;;;;;;;5063391;28;20072;-83
2024/01/19 07:58:25;;;;;;;1999.90;999.90;;;;;;;;;;5055634;28;20123;-85
2024/01/19 08:00:52;;;;;;;1999.90;999.90;;;;;;;;;;5068702;28;20055;-84
2024/01/19 08:03:19;;;;;;;1999.90;999.90;;;;;;;;;;5060246;28;20127;-83
2024/01/19 08:05:45;;;;;;;1999.90;999.90;;;;;;;;;;5080280;28;20060;-84
2024/01/19 08:08:13;;;;;;;1999.90;999.90;;;;;;;;;;5075886;28;20507;-84
2024/01/19 08:10:40;;;;;;;1999.90;999.90;;;;;;;;;;5090130;28;20124;-84
2024/01/19 08:13:06;;;;;;;1999.90;999.90;;;;;;;;;;5082581;28;20048;-84
2024/01/19 08:15:33;;;;;;;1999.90;999.90;;;;;;;;;;5077711;28;20063;-84
2024/01/19 08:17:59;;;;;;;1999.90;999.90;;;;;;;;;;5076686;28;20044;-85
2024/01/19 08:20:26;;;;;;;1999.90;999.90;;;;;;;;;;5080674;28;20618;-85
2024/01/19 08:22:53;;;;;;;1999.90;999.90;;;;;;;;;;5085277;28;20036;-85
2024/01/19 08:25:21;;;;;;;1999.90;999.90;;;;;;;;;;5075191;28;20086;-84
2024/01/19 08:27:47;;;;;;;1999.90;999.90;;;;;;;;;;5073963;28;20045;-84
2024/01/19 08:30:15;;;;;;;1999.90;999.90;;;;;;;;;;5080870;28;20055;-89
2024/01/19 08:32:42;;;;;;;1999.90;999.90;;;;;;;;;;5084292;28;20651;-84
2024/01/19 08:35:09;;;;;;;1999.90;999.90;;;;;;;;;;5070991;28;20052;-84
2024/01/19 08:37:36;;;;;;;1999.90;999.90;;;;;;;;;;5076370;28;20451;-85
2024/01/19 08:40:03;;;;;;;1999.90;999.90;;;;;;;;;;5071420;28;20051;-84
2024/01/19 08:42:30;;;;;;;1999.90;999.90;;;;;;;;;;5079088;28;20058;-84
2024/01/19 08:44:58;;;;;;;1999.90;999.90;;;;;;;;;;5083698;28;20060;-84
2024/01/19 08:47:24;;;;;;;1999.90;999.90;;;;;;;;;;5086148;28;20044;-84
2024/01/19 08:49:51;;;;;;;1999.90;999.90;;;;;;;;;;5086499;28;20048;-85
2024/01/19 08:52:17;;;;;;;1999.90;999.90;;;;;;;;;;5087077;28;20048;-85
2024/01/19 08:54:44;;;;;;;1999.90;999.90;;;;;;;;;;5084402;28;20053;-84
2024/01/19 08:57:10;;;;;;;1999.90;999.90;;;;;;;;;;5077564;28;20057;-85
2024/01/19 08:59:38;;;;;;;1999.90;999.90;;;;;;;;;;5083355;28;20062;-85
2024/01/19 09:02:05;;;;;;;1999.90;999.90;;;;;;;;;;5083566;28;20062;-85
2024/01/19 09:04:33;;;;;;;1999.90;999.90;;;;;;;;;;5064785;28;20478;-84
2024/01/19 09:07:01;;;;;;;1999.90;999.90;;;;;;;;;;5047037;28;20080;-85
2024/01/19 09:09:28;;;;;;;1999.90;999.90;;;;;;;;;;5056297;28;20551;-84
2024/01/19 09:11:55;;;;;;;1999.90;999.90;;;;;;;;;;5053018;28;20044;-85
2024/01/19 09:14:22;;;;;;;1999.90;999.90;;;;;;;;;;5057920;28;20182;-85
2024/01/19 09:16:50;;;;;;;1999.90;999.90;;;;;;;;;;5065797;28;20045;-84
2024/01/19 09:19:16;;;;;;;1999.90;999.90;;;;;;;;;;5059682;28;20052;-85
2024/01/19 09:21:44;;;;;;;1999.90;999.90;;;;;;;;;;5060798;28;20728;-85
2024/01/19 09:24:11;;;;;;;1999.90;999.90;;;;;;;;;;5045973;28;20072;-86
2024/01/19 09:26:38;;;;;;;1999.90;999.90;;;;;;;;;;5053415;28;20053;-85
2024/01/19 09:29:04;;;;;;;1999.90;999.90;;;;;;;;;;5063436;28;20049;-85
2024/01/19 09:31:31;;;;;;;1999.90;999.90;;;;;;;;;;5058411;28;20045;-85
2024/01/19 09:33:59;;;;;;;1999.90;999.90;;;;;;;;;;5066248;28;20075;-85
2024/01/19 09:36:25;;;;;;;1999.90;999.90;;;;;;;;;;5062603;28;20508;-88
2024/01/19 09:38:52;;;;;;;1999.90;999.90;;;;;;;;;;5053087;28;20121;-85
2024/01/19 09:41:27;;;;;;;1999.90;999.90;;;;;;;;;;5058439;28;20045;-84
2024/01/19 09:43:55;;;;;;;1999.90;999.90;;;;;;;;;;5049613;28;20056;-85
2024/01/19 09:46:27;;;;;;;1999.90;999.90;;;;;;;;;;5059200;28;20493;-85
2024/01/19 09:49:03;;;;;;;1999.90;999.90;;;;;;;;;;5057924;28;20148;-85
2024/01/19 09:51:35;;;;;;;1999.90;999.90;;;;;;;;;;5060654;28;20055;-87
2024/01/19 09:54:03;;;;;;;1999.90;999.90;;;;;;;;;;5052208;28;20045;-85
2024/01/19 09:56:29;;;;;;;1999.90;999.90;;;;;;;;;;5053048;28;20049;-88
2024/01/19 09:58:56;;;;;;;1999.90;999.90;;;;;;;;;;5057589;28;20080;-87
2024/01/19 10:01:23;;;;;;;1999.90;999.90;;;;;;;;;;5056930;28;20095;-85
2024/01/19 10:03:50;;;;;;;1999.90;999.90;;;;;;;;;;5063287;28;20053;-85
2024/01/19 10:06:17;;;;;;;1999.90;999.90;;;;;;;;;;5068112;28;20080;-88
2024/01/19 10:08:44;;;;;;;1999.90;999.90;;;;;;;;;;5080105;28;20583;-86
2024/01/19 10:11:11;;;;;;;1999.90;999.90;;;;;;;;;;5084581;28;20057;-89
2024/01/19 10:13:37;;;;;;;1999.90;999.90;;;;;;;;;;5075704;28;20135;-85
2024/01/19 10:16:05;;;;;;;1999.90;999.90;;;;;;;;;;5079878;28;20075;-84
2024/01/19 10:18:32;;;;;;;1999.90;999.90;;;;;;;;;;5074232;28;20059;-85
2024/01/19 10:20:58;;;;;;;1999.90;999.90;;;;;;;;;;5082996;28;20055;-84
2024/01/19 10:23:26;;;;;;;1999.90;999.90;;;;;;;;;;5081377;28;20169;-85
2024/01/19 10:25:53;;;;;;;1999.90;999.90;;;;;;;;;;5082972;28;20081;-85
2024/01/19 10:28:30;;;;;;;1999.90;999.90;;;;;;;;;;5078330;28;20048;-85
2024/01/19 10:31:17;;;;;;;1999.90;999.90;;;;;;;;;;5080129;28;20817;-85
2024/01/19 10:33:51;;;;;;;1999.90;999.90;;;;;;;;;;5076207;28;20044;-85
2024/01/19 10:36:18;;;;;;;1999.90;999.90;;;;;;;;;;5068374;28;20477;-87
2024/01/19 10:38:45;;;;;;;1999.90;999.90;;;;;;;;;;5073624;28;20056;-85
2024/01/19 10:41:15;;;;;;;1999.90;999.90;;;;;;;;;;5076164;28;20050;-86
2024/01/19 10:43:41;;;;;;;1999.90;999.90;;;;;;;;;;5075325;28;20055;-86
2024/01/19 10:46:19;;;;;;;1999.90;999.90;;;;;;;;;;5069996;28;20135;-85
2024/01/19 10:49:04;;;;;;;1999.90;999.90;;;;;;;;;;5078447;28;20048;-85
2024/01/19 10:51:32;;;;;;;1999.90;999.90;;;;;;;;;;5071177;28;20051;-85
2024/01/19 10:54:02;;;;;;;1999.90;999.90;;;;;;;;;;5073975;28;20044;-85
2024/01/19 10:56:29;;;;;;;1999.90;999.90;;;;;;;;;;5072637;28;20074;-84
2024/01/19 10:58:55;;;;;;;1999.90;999.90;;;;;;;;;;5079560;28;20051;-85
2024/01/19 11:01:22;;;;;;;1999.90;999.90;;;;;;;;;;5075183;28;20044;-85
2024/01/19 11:03:50;;;;;;;1999.90;999.90;;;;;;;;;;5074367;28;20064;-86
2024/01/19 11:06:17;;;;;;;1999.90;999.90;;;;;;;;;;5080021;28;20057;-87
2024/01/19 11:08:43;;;;;;;1999.90;999.90;;;;;;;;;;5079463;28;20055;-86
2024/01/19 11:11:12;;;;;;;1999.90;999.90;;;;;;;;;;5075373;28;20049;-86
2024/01/19 11:13:41;;;;;;;1999.90;999.90;;;;;;;;;;5083174;28;20053;-84
2024/01/19 11:16:12;;;;;;;1999.90;999.90;;;;;;;;;;5075573;28;20806;-84
2024/01/19 11:18:43;;;;;;;1999.90;999.90;;;;;;;;;;5074040;28;20045;-85
2024/01/19 11:21:10;;;;;;;1999.90;999.90;;;;;;;;;;5091923;28;20048;-88
2024/01/19 11:23:37;;;;;;;1999.90;999.90;;;;;;;;;;5080444;28;20051;-85
2024/01/19 11:26:10;;;;;;;1999.90;999.90;;;;;;;;;;5091649;28;20052;-85
2024/01/19 11:28:45;;;;;;;1999.90;999.90;;;;;;;;;;5084743;28;20546;-84
2024/01/19 11:31:14;;;;;;;1999.90;999.90;;;;;;;;;;5086234;28;20045;-85
2024/01/19 11:33:41;;;;;;;1999.90;999.90;;;;;;;;;;5075677;28;20056;-85
2024/01/19 11:36:08;;;;;;;1999.90;999.90;;;;;;;;;;5076570;28;20050;-85
2024/01/19 11:38:45;;;;;;;1999.90;999.90;;;;;;;;;;5075846;28;20048;-86
2024/01/19 11:41:11;;;;;;;1999.90;999.90;;;;;;;;;;5091644;28;20076;-89
2024/01/19 11:43:43;;;;;;;1999.90;999.90;;;;;;;;;;5092939;28;20045;-90
2024/01/19 11:46:09;;;;;;;1999.90;999.90;;;;;;;;;;5092287;28;20092;-87
2024/01/19 11:48:40;;;;;;;1999.90;999.90;;;;;;;;;;5084905;28;20473;-86
2024/01/19 11:51:07;;;;;;;1999.90;999.90;;;;;;;;;;5076006;28;20497;-87
2024/01/19 11:53:55;;;;;;;1999.90;999.90;;;;;;;;;;5079211;28;20123;-87
2024/01/19 11:56:23;;;;;;;1999.90;999.90;;;;;;;;;;5066096;28;20049;-87
2024/01/19 11:58:51;;;;;;;1999.90;999.90;;;;;;;;;;5086166;28;20054;-86
2024/01/19 12:01:18;;;;;;;1999.90;999.90;;;;;;;;;;5076191;28;20056;-86
2024/01/19 12:03:45;;;;;;;1999.90;999.90;;;;;;;;;;5084586;28;20188;-88
2024/01/19 12:06:11;;;;;;;1999.90;999.90;;;;;;;;;;5095401;28;20488;-85
2024/01/19 12:08:38;;;;;;;1999.90;999.90;;;;;;;;;;5087778;28;20048;-86
2024/01/19 12:11:07;;;;;;;1999.90;999.90;;;;;;;;;;5074955;28;20488;-86
2024/01/19 12:13:35;;;;;;;1999.90;999.90;;;;;;;;;;5084224;28;20041;-86
2024/01/19 12:16:04;;;;;;;1999.90;999.90;;;;;;;;;;5086582;28;20044;-86
2024/01/19 12:18:32;;;;;;;1999.90;999.90;;;;;;;;;;5075370;28;20054;-85
2024/01/19 12:21:00;;;;;;;1999.90;999.90;;;;;;;;;;5078209;28;20044;-86
2024/01/19 12:23:28;;;;;;;1999.90;999.90;;;;;;;;;;5086391;28;20044;-87
2024/01/19 12:25:58;;;;;;;1999.90;999.90;;;;;;;;;;5075726;28;20045;-87
2024/01/19 12:28:25;;;;;;;1999.90;999.90;;;;;;;;;;5075895;28;20797;-87
2024/01/19 12:30:52;;;;;;;1999.90;999.90;;;;;;;;;;5074409;28;20082;-87
2024/01/19 12:33:25;;;;;;;1999.90;999.90;;;;;;;;;;5081736;28;20048;-87
2024/01/19 12:36:03;;;;;;;1999.90;999.90;;;;;;;;;;5092056;28;20075;-87
2024/01/19 12:38:29;;;;;;;1999.90;999.90;;;;;;;;;;5067781;28;20047;-87
2024/01/19 12:40:56;;;;;;;1999.90;999.90;;;;;;;;;;5083368;28;20047;-86
2024/01/19 12:43:23;;;;;;;1999.90;999.90;;;;;;;;;;5073981;28;20048;-86
2024/01/19 12:45:49;;;;;;;1999.90;999.90;;;;;;;;;;5081063;28;20054;-87
2024/01/19 12:48:16;;;;;;;1999.90;999.90;;;;;;;;;;5077633;28;20165;-86
2024/01/19 12:50:44;;;;;;;1999.90;999.90;;;;;;;;;;5081713;28;20048;-88
2024/01/19 12:53:10;;;;;;;1999.90;999.90;;;;;;;;;;5079154;28;20049;-88
2024/01/19 12:55:37;;;;;;;1999.90;999.90;;;;;;;;;;5078750;28;20045;-89
2024/01/19 12:58:03;;;;;;;1999.90;999.90;;;;;;;;;;5080435;28;20044;-88
2024/01/19 13:00:31;;;;;;;1999.90;999.90;;;;;;;;;;5086506;28;20089;-88
2024/01/19 13:02:58;;;;;;;1999.90;999.90;;;;;;;;;;5081857;28;20061;-87
2024/01/19 13:05:27;;;;;;;1999.90;999.90;;;;;;;;;;5070928;28;20048;-88
2024/01/19 13:07:57;;;;;;;1999.90;999.90;;;;;;;;;;5075851;28;20121;-89
2024/01/19 13:10:23;;;;;;;1999.90;999.90;;;;;;;;;;5080796;28;20049;-88
2024/01/19 13:12:50;;;;;;;1999.90;999.90;;;;;;;;;;5079718;28;20106;-87
2024/01/19 13:15:17;;;;;;;1999.90;999.90;;;;;;;;;;5076206;28;20063;-87
2024/01/19 13:17:44;;;;;;;1999.90;999.90;;;;;;;;;;5081944;28;20054;-87
2024/01/19 13:20:23;;;;;;;1999.90;999.90;;;;;;;;;;5086294;28;20066;-89
2024/01/19 13:22:49;;;;;;;1999.90;999.90;;;;;;;;;;5077482;28;20043;-85
2024/01/19 13:25:17;;;;;;;1999.90;999.90;;;;;;;;;;5079252;28;20131;-85
2024/01/19 13:27:44;;;;;;;1999.90;999.90;;;;;;;;;;5076685;28;20056;-84
2024/01/19 13:30:12;;;;;;;1999.90;999.90;;;;;;;;;;5084288;28;20052;-85
2024/01/19 13:32:38;;;;;;;1999.90;999.90;;;;;;;;;;5082204;28;20047;-86
2024/01/19 13:35:06;;;;;;;1999.90;999.90;;;;;;;;;;5071850;28;20044;-86
2024/01/19 13:37:32;;;;;;;1999.90;999.90;;;;;;;;;;5080440;28;20070;-88
2024/01/19 13:40:04;;;;;;;1999.90;999.90;;;;;;;;;;5060742;28;20063;-88
2024/01/19 13:42:32;;;;;;;1999.90;999.90;;;;;;;;;;5069573;28;20417;-88
2024/01/19 13:45:02;;;;;;;1999.90;999.90;;;;;;;;;;5075906;28;20055;-87